Time;durP1;ratioP1;P1;durP2;ratioP2;P2;SDS_P1;SDS_P2;PMS_P1;PMS_P2;Temp;Humidity;BMP_temperature;BMP_pressure;BME280_temperature;BME280_humidity;BME280_pressure;Samples;Min_cycle;Max_cycle;Signal;HPM_P1;HPM_P2
2021/05/20 00:00:08;;;;;;;16.10;12.00;;;;;;;9.46;77.26;93904.77;1753163;80;21045;-51
2021/05/20 00:02:36;;;;;;;18.00;13.05;;;;;;;9.45;77.34;93905.99;1763232;80;21056;-51
2021/05/20 00:05:05;;;;;;;17.20;13.32;;;;;;;9.46;77.48;93902.02;1750238;81;21000;-51
2021/05/20 00:07:32;;;;;;;19.48;13.48;;;;;;;9.45;77.46;93903.25;1757265;80;21000;-50
2021/05/20 00:10:00;;;;;;;19.35;14.53;;;;;;;9.39;77.71;93899.58;1765299;80;22693;-51
2021/05/20 00:12:27;;;;;;;25.80;14.43;;;;;;;9.34;77.83;93900.20;1768471;80;21147;-50
2021/05/20 00:14:54;;;;;;;16.23;12.93;;;;;;;9.30;78.14;93901.75;1769380;80;21578;-51
2021/05/20 00:17:22;;;;;;;20.97;14.60;;;;;;;9.32;78.17;93907.53;1762681;80;20985;-49
2021/05/20 00:19:49;;;;;;;18.35;13.53;;;;;;;9.36;78.42;93901.88;1772688;80;21557;-50
2021/05/20 00:22:15;;;;;;;17.25;13.78;;;;;;;9.46;78.38;93902.77;1765367;80;21065;-52
2021/05/20 00:24:42;;;;;;;15.13;12.45;;;;;;;9.56;78.08;93899.39;1770856;80;21095;-50
2021/05/20 00:27:08;;;;;;;26.42;16.20;;;;;;;9.59;77.87;93901.25;1765195;80;21178;-50
2021/05/20 00:29:35;;;;;;;24.70;16.02;;;;;;;9.52;77.83;93902.92;1767895;80;21102;-50
2021/05/20 00:32:03;;;;;;;28.87;15.35;;;;;;;9.43;77.99;93900.20;1779190;80;20904;-54
2021/05/20 00:34:29;;;;;;;20.57;14.50;;;;;;;9.37;78.00;93899.27;1771328;80;21157;-50
2021/05/20 00:36:56;;;;;;;22.25;14.45;;;;;;;9.28;78.03;93895.19;1749252;80;21500;-50
2021/05/20 00:39:23;;;;;;;24.35;15.40;;;;;;;9.20;78.23;93891.20;1727287;82;21006;-50
2021/05/20 00:41:50;;;;;;;26.00;14.85;;;;;;;9.15;78.58;93897.32;1738522;81;20992;-51
2021/05/20 00:44:16;;;;;;;17.92;14.23;;;;;;;9.19;78.80;93894.58;1752995;80;21080;-51
2021/05/20 00:46:43;;;;;;;23.32;14.40;;;;;;;9.26;78.69;93896.25;1751019;80;21072;-50
2021/05/20 00:49:10;;;;;;;18.45;12.90;;;;;;;9.30;78.49;93891.36;1748264;80;20960;-50
2021/05/20 00:51:41;;;;;;;19.95;13.43;;;;;;;9.34;78.46;93887.84;1771291;80;21142;-50
2021/05/20 00:54:09;;;;;;;18.15;14.03;;;;;;;9.40;78.31;93888.77;1763583;80;21032;-50
2021/05/20 00:56:38;;;;;;;19.92;13.20;;;;;;;9.39;77.89;93884.48;1770819;80;21056;-51
2021/05/20 00:59:05;;;;;;;19.15;12.73;;;;;;;9.36;77.81;93884.80;1751782;80;21122;-51
2021/05/20 01:01:32;;;;;;;16.35;11.78;;;;;;;9.31;77.82;93881.91;1772897;80;21048;-51
2021/05/20 01:03:59;;;;;;;14.15;11.53;;;;;;;9.26;77.85;93884.66;1770868;80;21487;-50
2021/05/20 01:06:26;;;;;;;19.00;12.65;;;;;;;9.23;78.01;93876.59;1718418;82;21084;-49
2021/05/20 01:08:57;;;;;;;17.17;12.50;;;;;;;9.24;78.16;93877.49;1683194;84;21186;-50
2021/05/20 01:11:24;;;;;;;20.25;13.40;;;;;;;9.32;78.16;93875.20;1736492;82;21091;-50
2021/05/20 01:13:51;;;;;;;18.82;13.10;;;;;;;9.40;78.08;93876.42;1713291;82;21115;-51
2021/05/20 01:16:18;;;;;;;18.20;13.08;;;;;;;9.48;78.09;93876.24;1721677;81;21020;-52
2021/05/20 01:18:46;;;;;;;19.90;13.80;;;;;;;9.46;78.15;93873.20;1741085;82;20949;-50
2021/05/20 01:21:15;;;;;;;20.70;13.50;;;;;;;9.45;78.28;93875.80;1731878;81;21628;-50
2021/05/20 01:23:42;;;;;;;22.17;13.38;;;;;;;9.46;78.30;93870.45;1755839;80;21083;-50
2021/05/20 01:26:08;;;;;;;20.10;14.07;;;;;;;9.47;78.41;93870.60;1758129;80;21013;-51
2021/05/20 01:28:36;;;;;;;21.62;15.63;;;;;;;9.49;78.31;93872.27;1766484;80;21019;-51
2021/05/20 01:31:04;;;;;;;17.05;11.70;;;;;;;9.49;78.27;93869.52;1736293;81;21095;-50
2021/05/20 01:33:31;;;;;;;22.67;14.03;;;;;;;9.51;78.24;93871.97;1736481;82;21020;-49
2021/05/20 01:35:58;;;;;;;20.77;14.40;;;;;;;9.45;78.22;93868.94;1767166;80;21054;-50
2021/05/20 01:40:55;;;;;;;20.57;14.13;;;;;;;9.37;78.60;93873.20;1759494;80;20997;-50
2021/05/20 01:43:22;;;;;;;23.98;15.13;;;;;;;9.42;78.67;93871.98;1765651;79;21008;-49
2021/05/20 01:45:54;;;;;;;21.33;14.28;;;;;;;9.45;78.63;93877.91;1757847;80;20967;-50
2021/05/20 01:48:17;;;;;;;20.27;13.78;;;;;;;9.47;78.60;93878.21;1753846;80;21580;-52
2021/05/20 01:50:44;;;;;;;39.78;14.25;;;;;;;9.45;78.48;93879.91;1727474;81;21088;-49
2021/05/20 01:53:11;;;;;;;20.57;12.65;;;;;;;9.41;78.55;93884.80;1719181;82;21005;-49
2021/05/20 01:55:38;;;;;;;20.50;13.13;;;;;;;9.38;78.64;93876.09;1724788;82;21084;-51
2021/05/20 01:58:04;;;;;;;20.15;13.30;;;;;;;9.38;78.70;93882.95;1749215;80;21035;-50
2021/05/20 02:00:31;;;;;;;18.90;13.18;;;;;;;9.39;78.74;93884.48;1753273;81;21097;-50
2021/05/20 02:02:58;;;;;;;25.82;18.70;;;;;;;9.35;78.66;93884.66;1757180;81;21022;-50
2021/05/20 02:05:24;;;;;;;20.17;14.43;;;;;;;9.30;78.83;93881.77;1756644;80;21538;-50
2021/05/20 02:07:51;;;;;;;19.95;11.68;;;;;;;9.32;78.91;93888.92;1752173;80;21118;-49
2021/05/20 02:10:18;;;;;;;15.70;12.82;;;;;;;9.34;78.86;93880.98;1754100;80;21076;-51
2021/05/20 02:12:44;;;;;;;20.92;13.62;;;;;;;9.33;78.91;93875.34;1763214;81;21598;-50
2021/05/20 02:15:12;;;;;;;21.12;14.47;;;;;;;9.32;78.95;93876.56;1755117;80;21039;-50
2021/05/20 02:17:40;;;;;;;21.23;14.53;;;;;;;9.29;79.07;93887.09;1754629;80;21096;-50
2021/05/20 02:20:09;;;;;;;21.93;12.82;;;;;;;9.27;79.30;93888.17;1721626;82;21044;-51
2021/05/20 02:22:36;;;;;;;30.37;15.95;;;;;;;9.29;79.28;93885.73;1733445;82;21110;-51
2021/05/20 02:25:05;;;;;;;27.50;15.50;;;;;;;9.26;79.25;93885.28;1698258;83;21621;-49
2021/05/20 02:27:31;;;;;;;27.35;16.02;;;;;;;9.26;79.29;93883.28;1701428;83;21511;-50
2021/05/20 02:29:58;;;;;;;18.42;13.98;;;;;;;9.29;79.56;93885.09;1690538;83;21040;-51
2021/05/20 02:32:24;;;;;;;27.17;15.30;;;;;;;9.34;79.26;93889.99;1719932;82;21156;-49
2021/05/20 02:34:51;;;;;;;19.95;14.38;;;;;;;9.35;79.41;93891.52;1729525;82;21005;-51
2021/05/20 02:37:17;;;;;;;22.37;13.62;;;;;;;9.39;79.09;93894.86;1726000;82;21126;-49
2021/05/20 02:39:44;;;;;;;23.32;13.50;;;;;;;9.38;78.88;93897.45;1724473;82;21100;-50
2021/05/20 02:42:10;;;;;;;32.23;15.72;;;;;;;9.35;78.92;93896.23;1723906;82;20988;-50
2021/05/20 02:44:38;;;;;;;27.67;15.55;;;;;;;9.33;79.08;93900.83;1700533;82;21131;-50
2021/05/20 02:47:05;;;;;;;22.25;14.70;;;;;;;9.33;79.36;93902.20;1731663;82;21093;-51
2021/05/20 02:49:32;;;;;;;23.07;14.83;;;;;;;9.38;79.21;93906.28;1730871;82;21015;-51
2021/05/20 02:51:59;;;;;;;21.02;13.43;;;;;;;9.41;79.20;93903.39;1726030;82;21033;-51
2021/05/20 02:54:25;;;;;;;19.37;13.22;;;;;;;9.46;78.94;93902.02;1693719;83;21025;-50
2021/05/20 02:56:52;;;;;;;24.43;13.10;;;;;;;9.46;78.83;93902.02;1707356;83;21016;-52
2021/05/20 02:59:19;;;;;;;19.25;12.65;;;;;;;9.45;78.85;93899.12;1767901;80;20951;-56
2021/05/20 03:01:47;;;;;;;31.73;14.45;;;;;;;9.47;78.71;93892.56;1770952;80;21314;-53
2021/05/20 03:04:15;;;;;;;19.37;13.45;;;;;;;9.43;78.70;93891.97;1762664;80;21185;-51
2021/05/20 03:06:42;;;;;;;23.65;13.03;;;;;;;9.43;78.89;93893.34;1758275;80;21536;-50
2021/05/20 03:09:10;;;;;;;33.05;13.58;;;;;;;9.44;78.65;93898.98;1762325;80;21646;-50
2021/05/20 03:11:38;;;;;;;25.27;12.55;;;;;;;9.43;78.82;93903.70;1753150;80;21802;-50
2021/05/20 03:14:05;;;;;;;27.93;16.95;;;;;;;9.47;78.90;93898.05;1751740;80;21066;-52
2021/05/20 03:16:32;;;;;;;34.38;17.40;;;;;;;9.47;78.88;93896.69;1752881;80;21507;-53
2021/05/20 03:19:00;;;;;;;34.85;17.67;;;;;;;9.48;78.86;93896.23;1757252;80;21646;-55
2021/05/20 03:21:27;;;;;;;34.15;17.35;;;;;;;9.51;78.80;93896.69;1745074;80;21106;-58
2021/05/20 03:23:56;;;;;;;42.08;17.07;;;;;;;9.53;78.76;93896.98;1755666;80;21099;-58
2021/05/20 03:26:22;;;;;;;27.37;15.30;;;;;;;9.56;78.80;93895.28;1760638;80;21053;-55
2021/05/20 03:28:49;;;;;;;26.82;15.08;;;;;;;9.62;78.73;93896.20;1756633;80;20985;-53
2021/05/20 03:31:16;;;;;;;26.82;15.83;;;;;;;9.69;78.51;93897.23;1751786;80;20972;-54
2021/05/20 03:33:43;;;;;;;21.45;14.30;;;;;;;9.72;78.40;93898.46;1749725;80;21069;-53
2021/05/20 03:36:10;;;;;;;23.38;14.53;;;;;;;9.77;78.14;93892.34;1774202;80;21024;-54
2021/05/20 03:38:37;;;;;;;24.37;14.43;;;;;;;9.76;77.90;93890.07;1772487;80;21079;-54
2021/05/20 03:41:04;;;;;;;19.57;12.82;;;;;;;9.72;78.05;93892.97;1726592;82;21634;-54
2021/05/20 03:43:38;;;;;;;25.80;15.50;;;;;;;9.77;78.22;93891.59;1716908;82;21013;-55
2021/05/20 03:46:05;;;;;;;23.38;15.90;;;;;;;9.85;78.11;93893.55;1720330;82;21593;-54
2021/05/20 03:48:33;;;;;;;26.20;15.83;;;;;;;9.86;78.16;93904.69;1741256;81;21530;-54
2021/05/20 03:51:01;;;;;;;27.22;15.03;;;;;;;9.87;78.17;93899.94;1726507;82;21124;-55
2021/05/20 03:53:32;;;;;;;22.17;13.55;;;;;;;9.91;78.28;93897.19;1752601;80;21523;-54
2021/05/20 03:56:00;;;;;;;23.22;13.83;;;;;;;10.02;78.15;93893.97;1755671;80;20971;-54
2021/05/20 03:58:29;;;;;;;23.42;15.30;;;;;;;10.17;77.89;93909.95;1770191;80;21190;-54
2021/05/20 04:00:56;;;;;;;18.70;12.60;;;;;;;10.20;77.58;93893.27;1760347;79;21047;-54
2021/05/20 04:03:31;;;;;;;17.07;12.43;;;;;;;10.28;77.22;93900.56;1762098;80;21049;-54
2021/05/20 04:06:02;;;;;;;17.15;11.05;;;;;;;10.31;76.77;93903.78;1766538;80;21087;-54
2021/05/20 04:08:29;;;;;;;20.57;12.68;;;;;;;10.35;76.51;93900.98;1764797;80;20985;-55
2021/05/20 04:10:56;;;;;;;27.42;12.80;;;;;;;10.45;76.32;93894.83;1761894;80;21103;-54
2021/05/20 04:13:36;;;;;;;20.45;12.63;;;;;;;10.56;76.20;93892.34;1772111;80;21071;-54
2021/05/20 04:16:04;;;;;;;18.25;12.73;;;;;;;10.69;75.76;93897.00;1776243;80;21492;-55
2021/05/20 04:18:32;;;;;;;27.20;12.15;;;;;;;10.77;75.21;93894.18;1762417;80;20957;-54
2021/05/20 04:20:59;;;;;;;18.20;11.57;;;;;;;10.81;74.43;93897.51;1760039;80;21071;-54
2021/05/20 04:23:26;;;;;;;16.62;11.97;;;;;;;10.82;74.14;93896.28;1764145;80;21095;-55
2021/05/20 04:25:53;;;;;;;14.00;10.55;;;;;;;10.78;74.00;93888.82;1769066;80;20988;-55
2021/05/20 04:28:20;;;;;;;20.92;12.00;;;;;;;10.76;73.90;93892.66;1779018;80;21798;-54
2021/05/20 04:30:46;;;;;;;15.63;11.20;;;;;;;10.70;73.79;93898.52;1760131;80;21045;-54
2021/05/20 04:33:13;;;;;;;36.50;13.10;;;;;;;10.69;73.87;93896.37;1768684;80;20968;-55
2021/05/20 04:35:40;;;;;;;20.10;11.83;;;;;;;10.73;73.95;93899.70;1758292;80;21133;-55
2021/05/20 04:38:07;;;;;;;17.30;11.33;;;;;;;10.78;73.85;93896.33;1750605;80;21100;-54
2021/05/20 04:40:38;;;;;;;20.92;12.70;;;;;;;10.73;73.72;93883.83;1774657;80;21060;-54
2021/05/20 04:43:05;;;;;;;18.62;12.10;;;;;;;10.63;73.89;93888.63;1759330;80;21011;-54
2021/05/20 04:45:34;;;;;;;16.62;11.78;;;;;;;10.62;74.13;93884.36;1769543;80;21110;-54
2021/05/20 04:48:02;;;;;;;20.30;11.00;;;;;;;10.68;74.15;93882.48;1783712;80;21020;-54
2021/05/20 04:50:29;;;;;;;18.42;11.45;;;;;;;10.81;74.02;93883.01;1764638;81;21563;-53
2021/05/20 04:52:56;;;;;;;23.90;11.30;;;;;;;10.85;73.80;93876.11;1764353;81;21019;-53
2021/05/20 04:55:23;;;;;;;19.35;11.25;;;;;;;10.87;73.83;93883.27;1761000;80;21607;-55
2021/05/20 04:57:49;;;;;;;21.27;11.50;;;;;;;10.84;73.85;93885.56;1774480;80;21015;-55
2021/05/20 05:00:18;;;;;;;18.50;10.55;;;;;;;10.83;73.95;93888.17;1779102;80;21076;-56
2021/05/20 05:02:44;;;;;;;20.02;12.13;;;;;;;10.86;74.09;93883.13;1773666;80;21079;-54
2021/05/20 05:05:11;;;;;;;22.13;12.20;;;;;;;10.89;73.92;93882.78;1761254;80;21064;-55
2021/05/20 05:07:38;;;;;;;16.60;11.95;;;;;;;10.96;74.00;93881.07;1760667;80;21143;-55
2021/05/20 05:10:07;;;;;;;23.90;11.97;;;;;;;11.03;73.87;93880.10;1778950;80;21004;-54
2021/05/20 05:12:34;;;;;;;15.40;9.90;;;;;;;11.11;73.82;93883.22;1778921;80;21135;-55
2021/05/20 05:15:01;;;;;;;13.98;10.55;;;;;;;11.16;73.34;93879.20;1778875;80;21463;-56
2021/05/20 05:17:27;;;;;;;17.82;11.80;;;;;;;11.21;73.38;93871.66;1736878;82;21232;-53
2021/05/20 05:19:54;;;;;;;32.45;12.15;;;;;;;11.27;73.05;93878.05;1717823;82;21036;-54
2021/05/20 05:22:22;;;;;;;16.80;10.18;;;;;;;11.33;73.05;93872.66;1707011;83;21060;-55
2021/05/20 05:24:49;;;;;;;27.80;12.10;;;;;;;11.40;72.86;93874.42;1723131;81;21092;-53
2021/05/20 05:27:15;;;;;;;14.50;10.40;;;;;;;11.45;72.84;93879.27;1685863;83;21103;-55
2021/05/20 05:29:44;;;;;;;18.90;10.68;;;;;;;11.54;72.35;93881.92;1682530;83;21563;-56
2021/05/20 05:32:10;;;;;;;25.15;12.88;;;;;;;11.56;72.34;93884.99;1683823;83;21657;-55
2021/05/20 05:34:38;;;;;;;21.93;10.53;;;;;;;11.54;72.27;93876.41;1694856;83;21099;-55
2021/05/20 05:37:05;;;;;;;17.02;11.80;;;;;;;11.57;71.94;93876.87;1665051;82;21141;-56
2021/05/20 05:39:31;;;;;;;25.77;13.10;;;;;;;11.70;71.93;93880.11;1736476;80;21011;-57
2021/05/20 05:41:59;;;;;;;17.92;10.65;;;;;;;11.88;71.85;93877.80;1719540;80;21108;-55
2021/05/20 05:44:26;;;;;;;14.05;10.30;;;;;;;12.00;71.26;93881.63;1748662;80;21091;-56
2021/05/20 05:46:53;;;;;;;27.73;14.65;;;;;;;12.07;70.65;93882.61;1730003;80;21496;-56
2021/05/20 05:49:25;;;;;;;10.60;8.60;;;;;;;12.20;69.89;93885.06;1739333;80;21123;-56
2021/05/20 05:51:52;;;;;;;9.80;7.97;;;;;;;12.28;67.29;93879.31;1714972;81;21109;-55
2021/05/20 05:54:17;;;;;;;19.10;11.88;;;;;;;12.29;67.28;93887.72;1684164;83;21106;-58
2021/05/20 05:56:44;;;;;;;14.73;9.60;;;;;;;12.36;68.17;93884.56;1685308;83;21617;-54
2021/05/20 05:59:11;;;;;;;12.82;8.10;;;;;;;12.40;67.61;93896.15;1693020;82;21027;-55
2021/05/20 06:01:39;;;;;;;9.33;8.43;;;;;;;12.38;67.64;93884.23;1692193;83;21076;-55
2021/05/20 06:04:08;;;;;;;10.30;7.50;;;;;;;12.42;67.62;93889.56;1684083;83;21116;-56
2021/05/20 06:06:38;;;;;;;10.45;6.85;;;;;;;12.44;66.44;93889.20;1682064;83;21120;-56
2021/05/20 06:09:06;;;;;;;10.82;7.25;;;;;;;12.49;65.86;93887.14;1688494;83;21061;-60
2021/05/20 06:11:33;;;;;;;11.00;7.65;;;;;;;12.57;65.39;93886.89;1684619;83;21096;-61
2021/05/20 06:14:03;;;;;;;9.33;6.92;;;;;;;12.65;65.95;93893.52;1655424;83;21096;-56
2021/05/20 06:16:30;;;;;;;19.55;14.50;;;;;;;12.73;65.76;93889.13;1686551;83;21092;-55
2021/05/20 06:18:59;;;;;;;16.75;9.13;;;;;;;12.82;65.54;93891.14;1685270;83;21175;-53
2021/05/20 06:21:26;;;;;;;14.58;8.75;;;;;;;12.90;64.86;93891.49;1691669;83;21134;-54
2021/05/20 06:23:52;;;;;;;14.25;8.90;;;;;;;12.96;64.74;93890.97;1706115;81;21128;-55
2021/05/20 06:26:19;;;;;;;13.65;7.83;;;;;;;13.05;64.72;93889.47;1678498;83;21192;-54
2021/05/20 06:28:46;;;;;;;10.68;7.42;;;;;;;13.10;64.07;93889.52;1673059;83;21077;-55
2021/05/20 06:31:15;;;;;;;6.58;5.92;;;;;;;13.14;63.61;93890.69;1657666;83;21083;-59
2021/05/20 06:33:42;;;;;;;12.28;7.08;;;;;;;13.19;63.61;93899.05;1698021;83;21092;-59
2021/05/20 06:36:10;;;;;;;12.15;7.47;;;;;;;13.23;62.77;93898.85;1693169;83;21185;-59
2021/05/20 06:38:38;;;;;;;7.30;6.53;;;;;;;13.24;61.66;93901.75;1671689;83;21694;-59
2021/05/20 06:41:07;;;;;;;9.48;7.75;;;;;;;13.25;61.24;93901.88;1708457;83;21032;-57
2021/05/20 06:43:34;;;;;;;7.45;6.75;;;;;;;13.22;61.54;93897.30;1699604;83;21155;-55
2021/05/20 06:46:01;;;;;;;9.05;7.60;;;;;;;13.21;61.56;93895.79;1690142;83;21081;-56
2021/05/20 06:48:28;;;;;;;8.15;6.72;;;;;;;13.22;61.20;93895.31;1699300;83;21100;-54
2021/05/20 06:50:55;;;;;;;7.20;6.50;;;;;;;13.26;60.89;93892.35;1675343;83;21140;-56
2021/05/20 06:53:25;;;;;;;7.75;6.53;;;;;;;13.28;61.25;93898.15;1699364;82;21605;-54
2021/05/20 06:55:55;;;;;;;8.20;7.17;;;;;;;13.27;61.11;93891.85;1716849;82;21093;-56
2021/05/20 07:01:07;;;;;;;7.03;6.33;;;;;;;13.28;60.68;93891.98;1703199;82;21088;-53
2021/05/20 07:03:34;;;;;;;7.37;6.17;;;;;;;13.32;60.97;93893.17;1699688;82;21899;-54
2021/05/20 07:06:03;;;;;;;8.50;6.42;;;;;;;13.35;60.38;93889.43;1661530;83;22358;-58
2021/05/20 07:08:30;;;;;;;9.73;6.50;;;;;;;13.30;60.37;93892.90;1733183;80;21137;-55
2021/05/20 07:10:58;;;;;;;7.55;5.67;;;;;;;13.25;60.53;93899.12;1748926;80;21119;-57
2021/05/20 07:13:25;;;;;;;6.62;5.92;;;;;;;13.26;60.29;93897.88;1757447;79;21115;-56
2021/05/20 07:15:52;;;;;;;11.28;7.17;;;;;;;13.24;60.10;93900.37;1715466;82;21024;-58
2021/05/20 07:18:19;;;;;;;11.15;6.28;;;;;;;13.24;60.37;93903.13;1729239;81;21086;-56
2021/05/20 07:20:45;;;;;;;6.67;5.80;;;;;;;13.22;60.64;93902.22;1736949;80;21487;-56
2021/05/20 07:23:16;;;;;;;7.10;6.33;;;;;;;13.22;60.33;93904.21;1733573;80;21079;-57
2021/05/20 07:25:42;;;;;;;7.97;6.10;;;;;;;13.16;60.24;93896.48;1736238;80;21023;-57
2021/05/20 07:28:10;;;;;;;9.85;6.58;;;;;;;13.13;60.23;93894.70;1738621;80;21029;-56
2021/05/20 07:30:37;;;;;;;8.08;6.85;;;;;;;13.07;60.45;93903.55;1741299;80;21149;-57
2021/05/20 07:33:04;;;;;;;7.40;5.60;;;;;;;13.00;60.70;93895.05;1744010;80;21172;-57
2021/05/20 07:35:31;;;;;;;7.28;6.58;;;;;;;12.93;60.61;93898.84;1738797;80;20996;-57
2021/05/20 07:37:59;;;;;;;12.85;6.70;;;;;;;12.88;60.83;93893.98;1736850;80;21063;-56
2021/05/20 07:40:26;;;;;;;10.28;6.60;;;;;;;12.82;61.47;93903.56;1740080;80;21099;-54
2021/05/20 07:42:53;;;;;;;6.12;5.55;;;;;;;12.79;61.27;93896.86;1755998;80;21109;-54
2021/05/20 07:45:20;;;;;;;8.05;6.75;;;;;;;12.81;61.30;93898.51;1748638;80;21181;-58
2021/05/20 07:47:48;;;;;;;8.38;7.20;;;;;;;12.80;61.48;93898.38;1762898;80;21095;-54
2021/05/20 07:50:15;;;;;;;9.90;8.70;;;;;;;12.80;61.69;93898.38;1737394;80;21041;-57
2021/05/20 07:52:44;;;;;;;10.20;8.33;;;;;;;12.82;61.88;93898.64;1738931;80;21103;-56
2021/05/20 07:55:13;;;;;;;8.85;7.78;;;;;;;12.87;61.36;93891.08;1731913;81;22105;-52
2021/05/20 07:57:40;;;;;;;13.45;8.38;;;;;;;12.94;60.96;93893.45;1744330;81;21135;-55
2021/05/20 08:00:08;;;;;;;8.63;7.50;;;;;;;13.03;60.95;93879.50;1721339;80;21103;-55
2021/05/20 08:10:46;;;;;;;10.15;7.22;;;;;;;13.52;60.04;93893.91;1718608;80;21115;-53
2021/05/20 08:13:07;;;;;;;8.63;6.25;;;;;;;13.60;60.24;93899.77;1743196;80;21100;-54
2021/05/20 08:15:36;;;;;;;7.50;6.78;;;;;;;13.68;59.24;93897.48;1724182;80;21180;-56
2021/05/20 08:18:02;;;;;;;7.90;6.08;;;;;;;13.75;58.71;93897.64;1747166;79;21368;-55
2021/05/20 08:20:31;;;;;;;6.45;5.42;;;;;;;13.74;57.84;93894.14;1755790;80;22202;-58
2021/05/20 08:22:58;;;;;;;6.80;5.15;;;;;;;13.76;58.16;93897.17;1760323;80;22291;-57
2021/05/20 08:25:26;;;;;;;7.00;5.72;;;;;;;13.83;58.81;93895.98;1749798;80;21571;-51
2021/05/20 08:27:53;;;;;;;7.97;5.72;;;;;;;13.87;57.20;93893.75;1731737;80;21066;-56
2021/05/20 08:30:20;;;;;;;14.43;6.28;;;;;;;13.89;57.64;93895.40;1756639;80;21144;-53
2021/05/20 08:32:47;;;;;;;7.35;5.80;;;;;;;13.90;57.58;93896.92;1732310;80;21079;-53
2021/05/20 08:35:14;;;;;;;5.92;5.33;;;;;;;13.94;57.48;93892.70;1761011;80;21059;-56
2021/05/20 08:37:41;;;;;;;5.95;5.28;;;;;;;13.99;57.62;93903.04;1758714;80;21083;-54
2021/05/20 08:40:11;;;;;;;11.35;5.45;;;;;;;14.11;57.14;93896.98;1768583;80;20973;-53
2021/05/20 08:42:37;;;;;;;7.33;4.75;;;;;;;14.22;56.54;93899.88;1745946;80;21138;-53
2021/05/20 08:45:17;;;;;;;5.60;4.95;;;;;;;14.34;57.09;93897.34;1756780;80;21135;-53
2021/05/20 08:47:45;;;;;;;5.17;4.65;;;;;;;14.43;56.46;93897.15;1729200;80;21167;-54
2021/05/20 08:50:13;;;;;;;5.67;5.08;;;;;;;14.47;56.75;93903.98;1754669;80;21146;-56
2021/05/20 08:52:42;;;;;;;10.08;5.22;;;;;;;14.47;55.67;93904.73;1757974;80;21614;-56
2021/05/20 08:55:13;;;;;;;5.08;4.22;;;;;;;14.47;55.61;93901.96;1751888;80;22286;-59
2021/05/20 08:57:40;;;;;;;6.47;4.45;;;;;;;14.48;55.31;93906.25;1738526;80;21123;-57
2021/05/20 09:00:14;;;;;;;13.40;4.30;;;;;;;14.51;55.28;93912.20;1750550;80;22426;-55
2021/05/20 09:02:41;;;;;;;4.53;3.70;;;;;;;14.54;54.92;93907.67;1746554;80;21000;-54
2021/05/20 09:05:12;;;;;;;4.05;3.58;;;;;;;14.55;55.42;93911.95;1728733;80;21515;-58
2021/05/20 09:07:40;;;;;;;6.47;3.45;;;;;;;14.60;54.49;93910.63;1754981;80;21295;-56
2021/05/20 09:10:17;;;;;;;8.00;3.10;;;;;;;14.63;54.53;93906.86;1730744;81;21147;-56
2021/05/20 09:12:55;;;;;;;6.97;4.62;;;;;;;14.63;54.66;93908.25;1753484;80;21079;-59
2021/05/20 09:15:31;;;;;;;3.22;3.02;;;;;;;14.65;54.50;93911.28;1752218;80;21049;-55
2021/05/20 09:18:24;;;;;;;2.55;2.35;;;;;;;14.72;53.69;93913.61;1760597;80;21087;-56
2021/05/20 09:20:57;;;;;;;2.90;2.05;;;;;;;14.82;53.59;93919.71;1727124;80;21060;-52
2021/05/20 09:23:28;;;;;;;;;;;;;;;14.96;52.29;93914.00;1726763;81;21194;-57
2021/05/20 09:26:09;;;;;;;3.35;2.70;;;;;;;15.02;51.96;93917.55;1699598;82;21032;-55
2021/05/20 09:28:47;;;;;;;3.77;2.40;;;;;;;15.02;52.10;93917.55;1706414;82;21158;-53
2021/05/20 09:31:15;;;;;;;5.10;2.77;;;;;;;15.09;52.93;93919.88;1699602;82;21079;-56
2021/05/20 09:33:55;;;;;;;3.27;2.60;;;;;;;15.17;52.48;93911.86;1722464;82;21084;-56
2021/05/20 09:36:24;;;;;;;5.80;3.35;;;;;;;15.19;52.08;93912.86;1723181;82;21080;-53
2021/05/20 09:39:10;;;;;;;3.87;3.40;;;;;;;15.24;52.85;93909.38;1709719;82;21107;-56
2021/05/20 09:41:36;;;;;;;4.10;2.85;;;;;;;15.30;52.90;93904.64;1697141;81;21122;-52
2021/05/20 09:44:30;;;;;;;3.47;3.10;;;;;;;15.41;53.08;93904.69;1692615;83;21382;-53
2021/05/20 09:47:00;;;;;;;2.65;2.42;;;;;;;15.53;52.52;93902.08;1727568;80;21119;-57
2021/05/20 09:49:26;;;;;;;4.05;2.47;;;;;;;15.65;52.67;93906.41;1705516;82;21693;-53
2021/05/20 09:52:21;;;;;;;4.83;2.87;;;;;;;15.79;52.20;93916.54;1685573;82;22057;-57
2021/05/20 09:54:48;;;;;;;5.55;3.25;;;;;;;15.89;51.54;93915.03;1712603;82;21638;-53
2021/05/20 09:57:37;;;;;;;4.45;2.65;;;;;;;15.90;52.23;93904.71;1704622;82;21103;-54
2021/05/20 10:00:14;;;;;;;6.28;3.12;;;;;;;15.93;51.66;93914.16;1673580;83;21096;-53
2021/05/20 10:02:41;;;;;;;5.17;3.15;;;;;;;15.95;51.02;93910.25;1682239;83;22100;-55
2021/05/20 10:05:32;;;;;;;4.05;2.90;;;;;;;16.01;51.81;93906.88;1694320;82;21062;-56
2021/05/20 10:08:02;;;;;;;3.98;2.90;;;;;;;16.13;51.32;93902.84;1690073;82;21112;-55
2021/05/20 10:10:30;;;;;;;9.25;3.17;;;;;;;16.28;51.58;93908.30;1699163;81;21296;-54
2021/05/20 10:12:57;;;;;;;3.98;3.22;;;;;;;16.36;50.24;93916.27;1730063;80;21110;-52
2021/05/20 10:15:25;;;;;;;3.33;3.02;;;;;;;16.30;50.28;93907.16;1748258;80;21119;-53
2021/05/20 10:17:52;;;;;;;5.95;2.72;;;;;;;16.24;50.88;93911.19;1743229;80;21702;-55
2021/05/20 10:20:22;;;;;;;3.80;2.80;;;;;;;16.20;51.12;93904.36;1727998;80;21067;-55
2021/05/20 10:22:49;;;;;;;5.10;2.50;;;;;;;16.06;51.04;93916.47;1757001;80;21045;-54
2021/05/20 10:25:18;;;;;;;3.83;3.02;;;;;;;15.92;50.97;93917.45;1711320;82;21096;-52
2021/05/20 10:27:45;;;;;;;4.22;2.98;;;;;;;15.77;50.88;93925.96;1661401;83;21194;-55
2021/05/20 10:30:15;;;;;;;5.45;3.50;;;;;;;15.66;50.84;93919.02;1715807;82;21102;-54
2021/05/20 10:32:43;;;;;;;3.70;3.33;;;;;;;15.52;51.61;93934.47;1735139;81;21649;-57
2021/05/20 10:35:16;;;;;;;4.10;3.37;;;;;;;15.31;51.51;93929.70;1707698;82;21104;-51
2021/05/20 10:37:43;;;;;;;9.70;7.37;;;;;;;15.16;52.21;93933.89;1703091;82;21600;-55
2021/05/20 10:40:28;;;;;;;7.65;4.40;;;;;;;15.03;52.51;93933.55;1698535;81;21074;-54
2021/05/20 10:43:11;;;;;;;4.28;3.52;;;;;;;14.94;53.01;93934.52;1680777;82;21186;-55
2021/05/20 10:45:41;;;;;;;4.42;3.58;;;;;;;14.90;53.20;93932.61;1736698;80;21114;-58
2021/05/20 10:48:14;;;;;;;3.75;3.45;;;;;;;14.88;53.84;93930.96;1697136;83;21187;-55
2021/05/20 10:50:55;;;;;;;4.72;4.33;;;;;;;14.93;53.48;93931.61;1698170;83;21091;-54
2021/05/20 10:53:48;;;;;;;5.72;4.30;;;;;;;15.00;53.24;93922.83;1695002;82;21557;-57
2021/05/20 10:56:33;;;;;;;5.35;4.33;;;;;;;15.05;53.38;93940.13;1667931;83;21102;-57
2021/05/20 10:59:01;;;;;;;4.45;4.05;;;;;;;15.01;53.30;93928.50;1759177;80;21075;-55
2021/05/20 11:01:35;;;;;;;4.58;3.70;;;;;;;15.00;53.76;93934.55;1745430;80;21000;-56
2021/05/20 11:04:05;;;;;;;6.42;3.67;;;;;;;14.97;53.66;93933.52;1727534;80;21080;-53
2021/05/20 11:06:42;;;;;;;4.33;3.50;;;;;;;14.93;53.81;93941.92;1734400;80;21072;-54
2021/05/20 11:09:11;;;;;;;3.90;3.60;;;;;;;14.90;53.87;93938.14;1729614;80;21130;-53
2021/05/20 11:11:46;;;;;;;4.47;3.70;;;;;;;14.86;54.20;93938.23;1729580;82;21080;-57
2021/05/20 11:14:18;;;;;;;4.25;3.85;;;;;;;14.82;54.08;93945.38;1758582;80;21150;-58
2021/05/20 11:16:49;;;;;;;4.72;4.22;;;;;;;14.68;54.16;93945.53;1765025;80;21665;-53
2021/05/20 11:19:25;;;;;;;5.22;3.45;;;;;;;14.49;54.43;93947.89;1766684;80;21015;-53
2021/05/20 11:22:04;;;;;;;8.90;4.10;;;;;;;14.39;54.69;93951.33;1767676;80;21121;-57
2021/05/20 11:24:41;;;;;;;4.97;4.47;;;;;;;14.32;54.71;93946.89;1725836;79;21136;-54
2021/05/20 11:27:17;;;;;;;4.72;4.28;;;;;;;14.22;55.00;93945.53;1748034;79;21114;-52
2021/05/20 11:29:47;;;;;;;6.42;4.87;;;;;;;14.16;55.12;93943.34;1757790;80;21099;-51
2021/05/20 11:37:32;;;;;;;4.95;4.45;;;;;;;14.32;55.45;93937.20;1760548;80;21095;-58
2021/05/20 11:39:57;;;;;;;6.90;4.80;;;;;;;14.47;56.01;93940.70;1743282;81;21511;-56
2021/05/20 11:42:27;;;;;;;5.87;5.08;;;;;;;14.58;55.45;93933.11;1747309;80;21500;-55
2021/05/20 11:44:56;;;;;;;10.45;5.90;;;;;;;14.70;55.06;93937.49;1735117;80;21082;-57
2021/05/20 11:47:22;;;;;;;8.60;4.70;;;;;;;14.78;54.76;93926.85;1754758;80;21095;-58
2021/05/20 11:49:50;;;;;;;5.60;5.05;;;;;;;14.85;54.22;93923.61;1755015;80;21069;-56
2021/05/20 11:52:18;;;;;;;6.33;5.45;;;;;;;14.87;53.80;93930.83;1738568;80;21052;-54